Kinnelon, New Jersey
Current Conditions -  °F | °C
As of 4:53 AM on Monday 20 Oct 2014 (Local Time) from KCDW Reporting Station
Clear Clear  
Wind Chill:   Ceiling: Unl
Heat Index:   Visibility: 10mi
Dew Point: -2°   Wind: 3mph
Humidity: 76%   Direction: 190°S
Pressure: 30.1"   Gusts: NA
Location:  40.9863°N, 74.383°W
Report Text: KCDW 200853Z AUTO 19003KT 10SM CLR 02/M02 A3010 RMK AO2 SLP198 T00221017 53005 TSNO
Loading
Personal Weather Stations






























Interactive Weather Map
Tropical Storm Tracking
New forecast layout! Learn more

10-Day Weather Forecast

Advertisements
Track Severe Weather on mobile